createdAt,value
2022-11-06T00:01:13.736Z,6.52
2022-11-06T00:03:41.555Z,6.50
2022-11-06T00:06:33.736Z,6.47
2022-11-06T00:09:05.493Z,6.45
2022-11-06T00:11:32.361Z,6.40
2022-11-06T00:14:01.433Z,6.39
2022-11-06T00:16:28.677Z,6.38
2022-11-06T00:18:55.736Z,6.38
2022-11-06T00:21:26.310Z,6.35
2022-11-06T00:23:55.354Z,6.34
2022-11-06T00:26:24.909Z,6.32
2022-11-06T00:28:52.827Z,6.32
2022-11-06T00:31:29.091Z,6.30
2022-11-06T00:33:57.631Z,6.27
2022-11-06T00:36:26.412Z,6.28
2022-11-06T00:38:54.986Z,6.28
2022-11-06T00:41:22.911Z,6.28
2022-11-06T00:43:55.386Z,6.26
2022-11-06T00:46:22.329Z,6.22
2022-11-06T00:48:49.584Z,6.21
2022-11-06T00:51:20.328Z,6.18
2022-11-06T00:53:47.861Z,6.16
2022-11-06T00:56:17.994Z,6.14
2022-11-06T00:58:46.224Z,6.16
2022-11-06T01:01:19.119Z,6.18
2022-11-06T01:03:51.219Z,6.19
2022-11-06T01:06:20.824Z,6.19
2022-11-06T01:08:49.101Z,6.17
2022-11-06T01:11:19.526Z,6.14
2022-11-06T01:13:49.546Z,6.15
2022-11-06T01:16:17.411Z,6.14
2022-11-06T01:18:45.125Z,6.11
2022-11-06T01:21:22.514Z,6.10
2022-11-06T01:24:14.834Z,6.06
2022-11-06T01:26:58.534Z,6.04
2022-11-06T01:29:29.380Z,6.02
2022-11-06T01:31:56.251Z,6.02
2022-11-06T01:34:23.473Z,6.02
2022-11-06T01:36:51.484Z,6.02
2022-11-06T01:39:19.201Z,6.00
2022-11-06T01:41:49.348Z,5.98
2022-11-06T01:44:34.799Z,5.98
2022-11-06T01:47:04.266Z,5.98
2022-11-06T01:49:37.402Z,5.97
2022-11-06T01:52:08.479Z,5.92
2022-11-06T01:54:39.318Z,5.90
2022-11-06T01:57:07.273Z,5.90
2022-11-06T01:59:39.533Z,5.89
2022-11-06T02:02:06.965Z,5.88
2022-11-06T02:04:40.904Z,5.87
2022-11-06T02:07:09.148Z,5.86
2022-11-06T02:09:36.401Z,5.85
2022-11-06T02:12:25.874Z,5.84
2022-11-06T02:15:23.634Z,5.84
2022-11-06T02:18:03.392Z,5.83
2022-11-06T02:20:35.040Z,5.80
2022-11-06T02:23:30.144Z,5.78
2022-11-06T02:26:23.690Z,5.75
2022-11-06T02:28:59.976Z,5.73
2022-11-06T02:31:33.987Z,5.67
2022-11-06T02:34:07.754Z,5.66
2022-11-06T02:36:39.815Z,5.68
2022-11-06T02:39:12.401Z,5.71
2022-11-06T02:41:44.155Z,5.70
2022-11-06T02:44:17.075Z,5.69
2022-11-06T02:46:50.807Z,5.69
2022-11-06T02:49:36.283Z,5.70
2022-11-06T02:52:31.960Z,5.72
2022-11-06T02:55:09.296Z,5.72
2022-11-06T02:57:41.601Z,5.74
2022-11-06T03:00:14.697Z,5.74
2022-11-06T03:02:57.608Z,5.71
2022-11-06T03:05:28.919Z,5.68
2022-11-06T03:08:25.528Z,5.69
2022-11-06T03:11:04.252Z,5.66
2022-11-06T03:13:54.280Z,5.62
2022-11-06T03:16:44.938Z,5.64
2022-11-06T03:19:27.424Z,5.67
2022-11-06T03:22:00.124Z,5.68
2022-11-06T03:24:34.187Z,5.69
2022-11-06T03:27:09.489Z,5.65
2022-11-06T03:29:45.280Z,5.64
2022-11-06T03:32:18.419Z,5.54
2022-11-06T03:34:54.108Z,5.45
2022-11-06T03:37:30.147Z,5.40
2022-11-06T03:40:01.930Z,5.35
2022-11-06T03:42:32.002Z,5.31
2022-11-06T03:45:09.289Z,5.29
2022-11-06T03:48:00.195Z,5.28
2022-11-06T03:50:33.844Z,5.30
2022-11-06T03:53:44.989Z,5.25
2022-11-06T03:56:18.170Z,5.17
2022-11-06T03:58:47.966Z,5.18
2022-11-06T04:01:21.615Z,5.15
2022-11-06T04:03:55.093Z,5.10
2022-11-06T04:06:29.397Z,5.03
2022-11-06T04:09:19.384Z,5.01
2022-11-06T04:12:07.218Z,5.01
2022-11-06T04:14:38.262Z,4.96
2022-11-06T04:17:09.742Z,4.93
2022-11-06T04:19:36.655Z,4.89
2022-11-06T04:22:24.704Z,4.85
2022-11-06T04:25:38.536Z,4.84
2022-11-06T04:28:32.206Z,4.86
2022-11-06T04:31:08.778Z,4.84
2022-11-06T04:33:53.848Z,4.89
2022-11-06T04:36:26.616Z,4.94
2022-11-06T04:39:15.700Z,4.90
2022-11-06T04:42:08.888Z,4.92
2022-11-06T04:44:40.589Z,4.94
2022-11-06T04:47:12.182Z,4.91
2022-11-06T04:49:42.076Z,4.87
2022-11-06T04:52:19.466Z,4.85
2022-11-06T04:54:46.686Z,4.76
2022-11-06T04:57:13.764Z,4.72
2022-11-06T04:59:40.913Z,4.73
2022-11-06T05:02:08.004Z,4.77
2022-11-06T05:04:35.351Z,4.81
2022-11-06T05:07:02.466Z,4.82
2022-11-06T22:07:22.585Z,8.09
2022-11-06T22:09:52.089Z,7.92
2022-11-06T22:12:20.215Z,7.72
2022-11-06T22:14:48.873Z,7.58
2022-11-06T22:17:17.530Z,7.48
2022-11-06T22:19:48.124Z,7.34
2022-11-06T22:22:17.480Z,7.27
2022-11-06T22:24:48.240Z,7.17
2022-11-06T22:27:17.085Z,7.03
2022-11-06T22:29:46.499Z,6.90
2022-11-06T22:32:15.368Z,6.79
2022-11-06T22:34:43.555Z,6.71
2022-11-06T22:37:12.545Z,6.68
2022-11-06T22:39:41.235Z,6.67
2022-11-06T22:42:09.694Z,6.65
2022-11-06T22:44:38.303Z,6.57
2022-11-06T22:47:06.912Z,6.51
2022-11-06T22:49:35.318Z,6.49
2022-11-06T22:52:03.867Z,6.44
2022-11-06T22:54:32.421Z,6.43
2022-11-06T22:57:01.004Z,6.40
2022-11-06T22:59:29.690Z,6.39
2022-11-06T23:01:58.128Z,6.37
2022-11-06T23:04:26.550Z,6.36
2022-11-06T23:06:55.440Z,6.36
2022-11-06T23:09:24.080Z,6.37
2022-11-06T23:11:52.708Z,6.37
2022-11-06T23:14:21.422Z,6.36
2022-11-06T23:17:01.131Z,6.37
2022-11-06T23:19:31.987Z,6.37
2022-11-06T23:22:19.238Z,6.36
2022-11-06T23:24:47.982Z,6.36
2022-11-06T23:27:16.671Z,6.36
2022-11-06T23:29:44.959Z,6.35
2022-11-06T23:32:13.735Z,6.36
2022-11-06T23:34:42.026Z,6.37
2022-11-06T23:37:10.292Z,6.36
2022-11-06T23:39:39.479Z,6.36
2022-11-06T23:42:07.858Z,6.34
2022-11-06T23:44:55.081Z,6.32
2022-11-06T23:47:23.868Z,6.28
2022-11-06T23:49:52.141Z,6.24
2022-11-06T23:52:21.032Z,6.22
2022-11-06T23:54:49.410Z,6.21
2022-11-06T23:57:17.898Z,6.23
2022-11-06T23:59:47.398Z,6.26
